Time;durP1;ratioP1;P1;durP2;ratioP2;P2;SDS_P1;SDS_P2;PMS_P1;PMS_P2;Temp;Humidity;BMP_temperature;BMP_pressure;BME280_temperature;BME280_humidity;BME280_pressure;Samples;Min_cycle;Max_cycle;Signal;HPM_P1;HPM_P2
2023/10/11 00:00:38;;;;;;;9.17;3.93;;;17.00;83.80;;;;;;5013669;28;20197;-43
2023/10/11 00:06:05;;;;;;;8.77;4.10;;;16.90;85.70;;;;;;5005393;28;20264;-46
2023/10/11 00:08:43;;;;;;;12.33;4.03;;;16.90;86.90;;;;;;5014305;28;20203;-47
2023/10/11 00:11:10;;;;;;;13.83;4.40;;;16.90;88.00;;;;;;5014096;28;20220;-46
2023/10/11 00:13:37;;;;;;;16.90;4.07;;;16.90;88.70;;;;;;5012849;28;20220;-48
2023/10/11 00:16:09;;;;;;;11.67;4.40;;;16.90;88.60;;;;;;5012919;28;20184;-48
2023/10/11 00:18:41;;;;;;;19.83;5.40;;;16.90;89.90;;;;;;5013858;28;20190;-48
2023/10/11 00:21:15;;;;;;;21.00;4.77;;;16.90;90.00;;;;;;5014110;28;20190;-49
2023/10/11 00:23:46;;;;;;;9.97;4.77;;;16.90;90.00;;;;;;5012959;28;20169;-46
2023/10/11 00:26:17;;;;;;;8.30;4.20;;;16.90;89.40;;;;;;5014099;28;20166;-48
2023/10/11 00:28:50;;;;;;;14.47;4.80;;;16.90;89.60;;;;;;5014120;28;20241;-47
2023/10/11 00:31:23;;;;;;;13.13;5.77;;;16.80;90.00;;;;;;5014212;28;20780;-47
2023/10/11 00:33:53;;;;;;;13.37;5.93;;;16.80;90.90;;;;;;5014705;28;20162;-47
2023/10/11 00:36:29;;;;;;;9.53;4.87;;;16.70;91.30;;;;;;5013860;28;20169;-48
2023/10/11 00:38:56;;;;;;;10.37;4.70;;;16.70;91.90;;;;;;5012609;28;20245;-48
2023/10/11 00:41:25;;;;;;;10.50;4.70;;;16.70;92.80;;;;;;5012510;28;20288;-47
2023/10/11 00:46:29;;;;;;;9.70;4.10;;;16.50;95.50;;;;;;5213863;22;20298;-42
2023/10/11 00:49:09;;;;;;;12.30;4.50;;;16.40;96.70;;;;;;5013739;28;20228;-42
2023/10/11 00:51:36;;;;;;;10.13;5.00;;;16.40;97.60;;;;;;5014068;28;20225;-41
2023/10/11 00:54:04;;;;;;;9.50;4.33;;;16.30;98.70;;;;;;5013843;28;20515;-45
2023/10/11 00:56:33;;;;;;;10.90;4.83;;;16.30;99.80;;;;;;5012483;28;20269;-45
2023/10/11 00:59:08;;;;;;;7.90;4.80;;;16.20;99.90;;;;;;5012502;28;20582;-44
2023/10/11 01:01:37;;;;;;;9.00;4.50;;;16.10;99.90;;;;;;5012442;28;20235;-43
2023/10/11 01:04:04;;;;;;;9.93;4.53;;;16.10;99.90;;;;;;5013659;28;20165;-43
2023/10/11 01:06:30;;;;;;;14.40;4.83;;;16.00;99.90;;;;;;5014542;28;20268;-42
2023/10/11 01:08:56;;;;;;;15.53;6.00;;;16.00;99.90;;;;;;5012750;28;20292;-42
2023/10/11 01:11:22;;;;;;;18.37;4.63;;;15.90;99.90;;;;;;5013881;28;20198;-42
2023/10/11 01:13:53;;;;;;;12.20;4.43;;;16.00;99.90;;;;;;5013716;28;20174;-44
2023/10/11 01:16:26;;;;;;;11.00;4.47;;;16.00;99.90;;;;;;5012614;28;20197;-41
2023/10/11 01:18:53;;;;;;;12.23;5.40;;;16.00;99.90;;;;;;5012239;28;20538;-45
2023/10/11 01:21:19;;;;;;;20.57;5.47;;;16.00;99.90;;;;;;5013931;28;20202;-42
2023/10/11 01:23:45;;;;;;;10.70;5.03;;;16.00;99.90;;;;;;5014166;28;20292;-43
2023/10/11 01:26:10;;;;;;;15.37;4.93;;;16.00;99.90;;;;;;5013856;28;20213;-45
2023/10/11 01:28:41;;;;;;;8.13;4.43;;;16.00;99.90;;;;;;5012342;28;20201;-42
2023/10/11 01:31:08;;;;;;;11.50;4.60;;;16.00;99.90;;;;;;5014160;28;20201;-42
2023/10/11 01:33:43;;;;;;;13.33;5.10;;;16.00;99.90;;;;;;5013864;28;20208;-43
2023/10/11 01:36:12;;;;;;;11.30;4.93;;;16.00;99.90;;;;;;5012420;28;20188;-47
2023/10/11 01:38:48;;;;;;;16.60;5.27;;;16.00;99.90;;;;;;5013301;28;20201;-48
2023/10/11 01:41:26;;;;;;;10.80;4.07;;;16.00;99.90;;;;;;5013417;28;20681;-48
2023/10/11 01:43:54;;;;;;;11.60;4.37;;;16.00;99.90;;;;;;5011918;28;20178;-49
2023/10/11 01:46:40;;;;;;;15.23;5.23;;;16.10;99.90;;;;;;5013262;28;20271;-46
2023/10/11 01:49:10;;;;;;;12.23;4.30;;;16.20;99.90;;;;;;5013302;28;20186;-47
2023/10/11 01:51:40;;;;;;;10.93;4.90;;;16.20;99.90;;;;;;5011973;28;20232;-48
2023/10/11 01:54:07;;;;;;;11.53;4.60;;;16.20;99.90;;;;;;5011813;28;20182;-47
2023/10/11 01:56:33;;;;;;;15.63;6.00;;;16.20;99.90;;;;;;5013851;28;20728;-40
2023/10/11 01:59:00;;;;;;;10.53;5.10;;;16.20;99.90;;;;;;5015662;28;20217;-44
2023/10/11 02:01:30;;;;;;;11.07;4.80;;;16.20;99.90;;;;;;5016891;28;20189;-43
2023/10/11 02:03:59;;;;;;;12.73;5.07;;;16.20;99.90;;;;;;5016649;28;20542;-42
2023/10/11 02:06:31;;;;;;;13.00;4.97;;;16.30;99.90;;;;;;5015682;28;20178;-43
2023/10/11 02:09:02;;;;;;;7.07;4.07;;;16.30;99.90;;;;;;5015330;28;20197;-47
2023/10/11 02:11:31;;;;;;;8.57;4.40;;;16.30;99.90;;;;;;5016367;28;20201;-48
2023/10/11 02:13:58;;;;;;;13.93;5.00;;;16.30;99.90;;;;;;5016356;28;20232;-47
2023/10/11 02:16:32;;;;;;;12.77;4.70;;;16.30;99.30;;;;;;5016677;28;20649;-47
2023/10/11 02:19:00;;;;;;;11.00;4.33;;;16.30;98.50;;;;;;5016631;28;20173;-47
2023/10/11 02:21:31;;;;;;;9.27;4.70;;;16.30;96.30;;;;;;5015989;28;20201;-48
2023/10/11 02:23:59;;;;;;;8.27;4.70;;;16.40;94.60;;;;;;5015992;28;20558;-46
2023/10/11 02:26:34;;;;;;;8.00;3.97;;;16.40;93.20;;;;;;5016131;28;20644;-48
2023/10/11 02:29:15;;;;;;;24.40;4.90;;;16.40;93.30;;;;;;5016036;28;20184;-48
2023/10/11 02:31:42;;;;;;;13.87;4.43;;;16.40;94.50;;;;;;5014855;28;20169;-48
2023/10/11 02:34:14;;;;;;;8.80;4.33;;;16.40;94.60;;;;;;5016008;28;20193;-47
2023/10/11 02:39:20;;;;;;;9.63;4.00;;;16.40;94.10;;;;;;5015067;28;20209;-42
2023/10/11 02:41:55;;;;;;;8.90;4.50;;;16.30;93.70;;;;;;5016035;28;20193;-43
2023/10/11 02:44:22;;;;;;;13.60;3.93;;;16.30;93.70;;;;;;4999452;28;20168;-41
2023/10/11 02:46:49;;;;;;;12.07;5.20;;;16.30;93.80;;;;;;5014535;28;20189;-42
2023/10/11 02:49:21;;;;;;;10.00;4.70;;;16.30;93.40;;;;;;5015833;28;20209;-40
2023/10/11 02:51:56;;;;;;;12.23;4.20;;;16.20;93.00;;;;;;5015954;28;20169;-45
2023/10/11 02:54:24;;;;;;;8.87;4.10;;;16.20;92.70;;;;;;5014334;28;20184;-42
2023/10/11 02:56:52;;;;;;;12.53;4.20;;;16.20;91.10;;;;;;5014500;28;20641;-42
2023/10/11 02:59:19;;;;;;;12.63;4.57;;;16.30;90.20;;;;;;5015645;28;20189;-43
2023/10/11 03:01:59;;;;;;;14.27;4.43;;;16.20;88.40;;;;;;5015431;28;20263;-45
2023/10/11 03:04:41;;;;;;;8.10;3.97;;;16.30;86.30;;;;;;5015675;28;20173;-40
2023/10/11 03:07:23;;;;;;;11.07;4.10;;;16.30;83.80;;;;;;5015380;28;20158;-41
2023/10/11 03:09:49;;;;;;;10.87;3.80;;;16.20;83.60;;;;;;5014794;28;20218;-41
2023/10/11 03:12:38;;;;;;;12.60;4.17;;;16.20;82.20;;;;;;5013937;28;20199;-43
2023/10/11 03:15:09;;;;;;;16.70;4.33;;;16.20;81.80;;;;;;5014211;28;20174;-39
2023/10/11 03:17:43;;;;;;;10.43;4.50;;;16.10;82.10;;;;;;5015318;28;20180;-43
2023/10/11 03:20:30;;;;;;;10.67;4.90;;;16.00;82.80;;;;;;4998713;28;20275;-44
2023/10/11 03:22:59;;;;;;;9.07;4.10;;;16.10;83.70;;;;;;5015282;28;20217;-48
2023/10/11 03:30:38;;;;;;;10.63;4.70;;;16.00;84.60;;;;;;4344672;23;20232;-47
2023/10/11 03:33:07;;;;;;;11.33;4.40;;;16.00;85.00;;;;;;5014853;28;20243;-47
2023/10/11 03:35:38;;;;;;;9.10;4.60;;;15.90;86.60;;;;;;5013601;28;20227;-46
2023/10/11 03:38:21;;;;;;;9.43;4.07;;;15.90;88.00;;;;;;5015168;28;20174;-48
2023/10/11 03:41:14;;;;;;;8.37;4.03;;;15.80;89.00;;;;;;5013522;28;20695;-47
2023/10/11 03:43:41;;;;;;;8.20;3.57;;;15.80;89.60;;;;;;5013395;28;20186;-48
2023/10/11 03:46:14;;;;;;;8.83;3.97;;;15.80;89.40;;;;;;5014740;28;20261;-47
2023/10/11 03:48:56;;;;;;;9.97;4.27;;;15.80;88.40;;;;;;5014578;28;20205;-47
2023/10/11 03:51:22;;;;;;;11.57;4.23;;;15.80;87.10;;;;;;5014511;28;20193;-47
2023/10/11 03:53:52;;;;;;;9.20;3.90;;;15.80;86.00;;;;;;5014492;28;20589;-46
2023/10/11 03:56:22;;;;;;;6.47;3.97;;;15.80;85.50;;;;;;5014714;28;20205;-46
2023/10/11 03:59:13;;;;;;;9.70;4.10;;;15.80;85.40;;;;;;5014569;28;20643;-46
2023/10/11 04:02:10;;;;;;;12.00;4.43;;;15.80;85.60;;;;;;5014256;28;20557;-46
2023/10/11 04:04:49;;;;;;;8.40;4.27;;;15.70;87.20;;;;;;5015238;28;20166;-47
2023/10/11 04:07:23;;;;;;;9.47;4.30;;;15.70;88.30;;;;;;5014255;28;20180;-46
2023/10/11 04:09:50;;;;;;;8.73;4.20;;;15.70;88.50;;;;;;5012830;28;20304;-48
2023/10/11 04:12:17;;;;;;;9.13;3.97;;;15.70;88.70;;;;;;5014125;28;20178;-49
2023/10/11 04:14:46;;;;;;;8.63;3.70;;;15.70;88.40;;;;;;5012752;28;20216;-47
2023/10/11 04:19:50;;;;;;;9.93;3.97;;;15.60;88.70;;;;;;5013794;28;20208;-46
2023/10/11 04:22:31;;;;;;;10.70;4.10;;;15.60;89.10;;;;;;5013531;28;20178;-46
2023/10/11 04:25:09;;;;;;;13.00;4.37;;;15.60;88.90;;;;;;5013939;28;20606;-46
2023/10/11 04:30:17;;;;;;;8.53;4.30;;;15.60;88.00;;;;;;5012631;28;20220;-48
2023/10/11 04:32:47;;;;;;;9.07;4.17;;;15.70;87.30;;;;;;5013943;28;20637;-45
2023/10/11 04:35:21;;;;;;;9.07;4.70;;;15.60;86.60;;;;;;5013816;28;20187;-48
2023/10/11 04:38:01;;;;;;;8.93;3.83;;;15.60;86.50;;;;;;5013823;28;20248;-48
2023/10/11 04:40:40;;;;;;;11.00;4.17;;;15.60;85.10;;;;;;5013607;28;20193;-49
2023/10/11 04:43:18;;;;;;;9.20;4.20;;;15.60;82.70;;;;;;5014087;28;20241;-47
2023/10/11 04:45:51;;;;;;;11.43;4.10;;;15.70;81.90;;;;;;5013197;28;20189;-46
2023/10/11 04:48:19;;;;;;;8.60;4.30;;;15.70;79.70;;;;;;5012377;28;20225;-47
2023/10/11 04:50:50;;;;;;;11.97;4.33;;;15.80;76.50;;;;;;5013446;28;20206;-47
2023/10/11 04:53:18;;;;;;;8.07;3.67;;;15.80;74.40;;;;;;5013513;28;20187;-45
2023/10/11 04:55:47;;;;;;;6.97;3.80;;;15.80;73.20;;;;;;5013609;28;20204;-47
2023/10/11 04:58:40;;;;;;;7.23;3.57;;;15.80;68.80;;;;;;5013525;28;20244;-47
2023/10/11 05:01:11;;;;;;;10.37;3.70;;;15.80;66.30;;;;;;5012138;28;20212;-46
2023/10/11 05:03:39;;;;;;;11.53;4.37;;;15.90;62.10;;;;;;5012247;28;20178;-47
2023/10/11 05:06:14;;;;;;;8.80;4.13;;;16.00;57.80;;;;;;5012094;28;20188;-49
2023/10/11 05:08:54;;;;;;;5.80;3.43;;;16.00;58.40;;;;;;5012155;28;20672;-48
2023/10/11 05:11:39;;;;;;;9.63;3.87;;;16.00;55.20;;;;;;5013332;28;20204;-48
2023/10/11 05:16:51;;;;;;;9.70;4.07;;;16.10;51.60;;;;;;5013994;28;20226;-46
2023/10/11 05:19:20;;;;;;;8.33;4.07;;;16.10;50.00;;;;;;5013042;28;20647;-45
2023/10/11 05:21:53;;;;;;;12.23;3.70;;;16.10;48.80;;;;;;5012019;28;20181;-49
2023/10/11 05:27:49;;;;;;;10.53;4.40;;;16.10;51.00;;;;;;5013543;28;20185;-45
2023/10/11 05:30:32;;;;;;;7.37;4.27;;;16.00;51.60;;;;;;5012751;28;20723;-48
2023/10/11 05:52:28;;;;;;;10.13;4.20;;;16.00;56.80;;;;;;5017299;28;20533;-46
2023/10/11 05:54:59;;;;;;;9.77;4.73;;;15.90;59.70;;;;;;5015501;28;20177;-47
2023/10/11 05:57:28;;;;;;;8.10;4.20;;;15.80;63.50;;;;;;5015411;28;20296;-48
2023/10/11 05:59:54;;;;;;;11.20;3.97;;;15.70;66.60;;;;;;5015294;28;20213;-47
2023/10/11 06:02:22;;;;;;;12.97;3.90;;;15.70;67.30;;;;;;5015465;28;20175;-48
2023/10/11 06:04:49;;;;;;;12.80;3.60;;;15.80;67.80;;;;;;5015310;28;20269;-47
2023/10/11 06:07:20;;;;;;;8.27;4.00;;;15.80;64.60;;;;;;5016479;28;20186;-49
2023/10/11 06:09:52;;;;;;;8.20;4.67;;;15.80;63.70;;;;;;5016134;28;20569;-45
2023/10/11 06:12:22;;;;;;;7.83;4.20;;;15.90;61.90;;;;;;5015362;28;20177;-48
2023/10/11 06:14:53;;;;;;;9.20;4.20;;;15.90;62.80;;;;;;5016201;28;20189;-47
2023/10/11 06:17:41;;;;;;;7.70;4.07;;;15.90;64.10;;;;;;5015203;28;20181;-46
2023/10/11 06:20:28;;;;;;;15.10;4.10;;;15.90;63.20;;;;;;5016027;28;20217;-48
2023/10/11 06:22:55;;;;;;;12.33;3.57;;;15.90;62.20;;;;;;5016574;28;20660;-47
2023/10/11 06:28:13;;;;;;;7.33;3.63;;;16.00;60.60;;;;;;5015205;28;20247;-48
2023/10/11 06:30:42;;;;;;;10.53;3.00;;;16.00;60.90;;;;;;5014792;28;20308;-48
2023/10/11 06:33:13;;;;;;;9.67;4.43;;;16.10;59.00;;;;;;5013603;28;20177;-47
2023/10/11 06:35:49;;;;;;;7.67;3.83;;;16.10;57.70;;;;;;5015171;28;20186;-46
2023/10/11 06:38:16;;;;;;;9.23;3.33;;;16.20;55.80;;;;;;5013610;28;20309;-48
2023/10/11 06:41:36;;;;;;;7.87;3.47;;;16.20;53.00;;;;;;5013403;28;20704;-47
2023/10/11 06:43:40;;;;;;;12.10;3.63;;;16.30;52.40;;;;;;5013482;28;20243;-47
2023/10/11 06:46:07;;;;;;;11.90;3.53;;;16.40;47.10;;;;;;5014855;28;20188;-48
2023/10/11 06:48:33;;;;;;;10.40;3.73;;;16.40;47.00;;;;;;5013349;28;20647;-48
2023/10/11 06:51:00;;;;;;;8.43;3.33;;;16.50;45.60;;;;;;5014552;28;20209;-47
2023/10/11 06:53:28;;;;;;;8.13;3.87;;;16.50;47.10;;;;;;5014466;28;20180;-47
2023/10/11 06:55:58;;;;;;;9.17;3.90;;;16.60;42.80;;;;;;5013237;28;20264;-47
2023/10/11 06:58:25;;;;;;;9.40;3.70;;;16.70;40.50;;;;;;5014490;28;20260;-48
2023/10/11 07:00:53;;;;;;;7.30;3.73;;;16.70;40.90;;;;;;5013114;28;20265;-46
2023/10/11 07:06:01;;;;;;;12.43;3.83;;;16.80;35.40;;;;;;5014732;28;20170;-47
2023/10/11 07:08:36;;;;;;;8.50;3.53;;;16.90;36.80;;;;;;5013243;28;20215;-48
2023/10/11 07:16:19;;;;;;;7.60;4.17;;;17.00;36.20;;;;;;5014674;28;20176;-46
2023/10/11 07:18:53;;;;;;;8.97;4.40;;;17.00;33.60;;;;;;5014453;28;20651;-47
2023/10/11 07:26:56;;;;;;;10.67;4.43;;;17.20;30.80;;;;;;5014201;28;20234;-47
2023/10/11 07:29:22;;;;;;;13.07;4.00;;;17.20;29.00;;;;;;4898910;28;2834557;-48
2023/10/11 07:31:49;;;;;;;10.47;3.97;;;17.30;29.80;;;;;;5013716;28;20188;-48
2023/10/11 07:34:18;;;;;;;13.87;4.23;;;17.30;26.70;;;;;;5014936;28;20181;-47
2023/10/11 07:36:45;;;;;;;10.27;3.67;;;17.40;27.40;;;;;;5013555;28;20272;-46
2023/10/11 07:42:26;;;;;;;11.33;3.50;;;17.60;24.60;;;;;;5015119;28;20640;-47
2023/10/11 07:44:49;;;;;;;15.80;3.70;;;17.70;17.60;;;;;;5012579;28;20189;-48
2023/10/11 07:47:16;;;;;;;11.43;4.00;;;17.70;19.80;;;;;;5013836;28;20208;-49
2023/10/11 07:49:45;;;;;;;6.43;3.33;;;17.90;19.80;;;;;;5013216;28;20228;-48
2023/10/11 07:52:19;;;;;;;11.23;4.70;;;17.90;26.00;;;;;;5013317;28;20186;-48
2023/10/11 07:54:45;;;;;;;10.43;3.30;;;17.90;27.70;;;;;;5014382;28;20158;-47
2023/10/11 07:57:15;;;;;;;10.97;3.60;;;18.00;25.50;;;;;;5014518;28;20194;-48
2023/10/11 07:59:47;;;;;;;9.87;4.77;;;18.10;20.20;;;;;;5013767;28;20201;-48
2023/10/11 08:02:26;;;;;;;12.60;3.80;;;18.10;22.00;;;;;;5015121;28;20276;-46
2023/10/11 08:04:58;;;;;;;9.63;3.50;;;18.20;23.40;;;;;;5013169;28;20177;-46
2023/10/11 08:07:24;;;;;;;9.53;3.63;;;18.30;16.40;;;;;;5015169;28;20173;-47
2023/10/11 08:09:53;;;;;;;12.50;4.47;;;18.30;17.10;;;;;;5014411;28;20209;-48
2023/10/11 08:12:23;;;;;;;11.53;3.80;;;18.40;12.30;;;;;;5014430;28;20173;-47
2023/10/11 08:14:53;;;;;;;15.50;4.00;;;18.50;10.90;;;;;;5013536;28;20185;-46
2023/10/11 08:17:21;;;;;;;7.27;3.60;;;18.60;3.70;;;;;;5014618;28;20178;-47
2023/10/11 08:19:53;;;;;;;15.50;4.00;;;18.60;1.00;;;;;;5014325;28;20703;-49
2023/10/11 08:22:22;;;;;;;12.53;4.17;;;18.70;3.40;;;;;;5013189;28;20197;-46
2023/10/11 08:24:49;;;;;;;17.00;3.90;;;18.90;1.90;;;;;;5012786;28;20181;-46
2023/10/11 08:27:27;;;;;;;7.93;3.93;;;18.90;1.00;;;;;;5012761;28;20177;-48
2023/10/11 08:32:42;;;;;;;8.77;3.53;;;19.10;1.00;;;;;;5013933;28;20201;-47
2023/10/11 08:35:16;;;;;;;8.37;4.03;;;19.20;1.00;;;;;;5013662;28;20181;-48
2023/10/11 08:37:52;;;;;;;7.47;3.70;;;19.20;1.20;;;;;;5013779;28;20165;-48
2023/10/11 08:42:54;;;;;;;8.47;3.67;;;19.40;1.00;;;;;;5013681;28;20257;-47
2023/10/11 08:45:52;;;;;;;13.43;4.07;;;19.50;1.40;;;;;;5013702;28;20194;-48
2023/10/11 08:48:18;;;;;;;10.47;3.17;;;19.60;1.00;;;;;;5000592;28;20681;-48
2023/10/11 08:50:55;;;;;;;11.17;3.77;;;19.70;1.00;;;;;;5013764;28;20252;-47
2023/10/11 08:53:21;;;;;;;12.50;3.87;;;19.70;1.00;;;;;;5012287;28;20184;-49
2023/10/11 08:55:59;;;;;;;9.83;4.30;;;19.80;1.00;;;;;;5013485;28;20192;-49
2023/10/11 08:58:30;;;;;;;10.90;3.90;;;19.90;1.00;;;;;;5013866;28;20220;-47
2023/10/11 09:00:58;;;;;;;7.40;3.40;;;19.90;1.00;;;;;;5013775;28;20202;-47
2023/10/11 09:03:40;;;;;;;7.17;3.30;;;20.00;1.00;;;;;;5012250;28;20244;-49
2023/10/11 09:06:23;;;;;;;10.10;3.67;;;20.10;1.00;;;;;;5014321;28;20170;-48
2023/10/11 09:08:51;;;;;;;8.43;3.47;;;20.20;1.00;;;;;;5019969;28;20193;-47
2023/10/11 09:11:32;;;;;;;9.43;3.80;;;20.30;1.00;;;;;;5019910;28;20287;-47
2023/10/11 09:14:26;;;;;;;7.37;3.70;;;20.30;1.00;;;;;;5019853;28;20211;-47
2023/10/11 09:16:57;;;;;;;7.63;3.37;;;20.40;1.00;;;;;;5012773;28;20196;-47
2023/10/11 09:19:25;;;;;;;8.83;3.20;;;20.50;1.00;;;;;;5018703;28;20185;-47
2023/10/11 09:22:18;;;;;;;10.80;3.53;;;20.60;1.00;;;;;;5020496;28;20243;-42
2023/10/11 09:24:45;;;;;;;8.57;3.57;;;20.60;1.00;;;;;;5019129;28;20558;-48
2023/10/11 09:29:46;;;;;;;8.20;3.80;;;20.80;1.00;;;;;;5020037;28;20219;-43
2023/10/11 09:32:13;;;;;;;12.70;3.73;;;20.80;1.00;;;;;;5018601;28;20169;-43
2023/10/11 09:34:42;;;;;;;10.90;3.87;;;20.90;1.00;;;;;;5019724;28;20177;-44
2023/10/11 09:37:11;;;;;;;13.40;3.27;;;20.90;1.00;;;;;;5019777;28;20180;-43
2023/10/11 09:39:37;;;;;;;8.43;3.40;;;21.10;1.00;;;;;;5019617;28;20209;-41
2023/10/11 09:42:04;;;;;;;10.83;3.50;;;21.10;1.00;;;;;;5018363;28;20185;-40
2023/10/11 09:44:40;;;;;;;12.47;3.47;;;21.20;1.00;;;;;;5019901;28;20181;-43
2023/10/11 09:47:07;;;;;;;11.03;3.73;;;21.20;1.00;;;;;;5018388;28;20264;-43
2023/10/11 09:52:17;;;;;;;8.33;3.67;;;21.40;1.00;;;;;;3913279;23;20327;-42
2023/10/11 09:54:43;;;;;;;6.17;3.23;;;21.50;1.00;;;;;;5002677;28;20161;-42
2023/10/11 09:57:21;;;;;;;10.47;3.63;;;21.50;1.00;;;;;;5018110;28;20255;-42
2023/10/11 09:59:59;;;;;;;9.70;3.77;;;21.60;1.00;;;;;;5018307;28;20248;-42
2023/10/11 10:02:25;;;;;;;8.83;3.33;;;21.60;1.00;;;;;;5019154;28;20173;-41
2023/10/11 10:04:51;;;;;;;11.77;3.40;;;21.70;1.00;;;;;;5019546;28;20185;-42
2023/10/11 10:07:28;;;;;;;11.83;3.53;;;21.80;1.00;;;;;;5019764;28;20185;-43
2023/10/11 10:10:00;;;;;;;15.33;4.17;;;21.80;1.00;;;;;;5019667;28;20580;-44
2023/10/11 10:12:31;;;;;;;10.63;3.70;;;21.90;1.00;;;;;;5019758;28;20259;-41
2023/10/11 10:15:11;;;;;;;9.83;3.80;;;21.90;1.00;;;;;;5019775;28;20182;-44
2023/10/11 10:17:38;;;;;;;8.80;3.73;;;22.00;1.00;;;;;;5019040;28;20161;-44
2023/10/11 10:20:32;;;;;;;16.10;3.97;;;22.00;1.00;;;;;;5014951;28;20681;-42
2023/10/11 10:23:22;;;;;;;9.47;3.50;;;22.00;1.00;;;;;;5016228;28;20677;-43
2023/10/11 10:26:06;;;;;;;9.93;3.63;;;22.20;1.00;;;;;;5007839;28;20639;-47
2023/10/11 10:28:32;;;;;;;15.13;3.53;;;22.20;7.90;;;;;;5015830;28;20243;-47
2023/10/11 10:31:11;;;;;;;9.13;3.50;;;22.30;1.00;;;;;;5014862;28;20232;-47
2023/10/11 10:33:49;;;;;;;5.57;3.47;;;22.40;1.00;;;;;;5014805;28;20251;-47
2023/10/11 10:36:21;;;;;;;16.17;4.00;;;22.50;8.60;;;;;;5014833;28;20166;-46
2023/10/11 10:41:36;;;;;;;14.63;4.73;;;22.60;1.00;;;;;;5015837;28;20208;-48
2023/10/11 10:44:04;;;;;;;11.20;3.80;;;22.70;9.80;;;;;;5016199;28;20185;-43
2023/10/11 10:46:33;;;;;;;10.67;4.53;;;22.70;1.00;;;;;;5016095;28;20173;-42
2023/10/11 10:49:01;;;;;;;10.00;4.40;;;22.80;1.00;;;;;;5015860;28;20205;-43
2023/10/11 10:51:39;;;;;;;12.23;3.50;;;22.80;1.00;;;;;;5015790;28;20224;-43
2023/10/11 10:54:12;;;;;;;14.13;4.03;;;22.80;1.00;;;;;;5015687;28;20154;-43
2023/10/11 10:56:42;;;;;;;8.90;3.50;;;22.80;10.70;;;;;;5015910;28;20170;-44
2023/10/11 10:59:13;;;;;;;12.10;4.17;;;22.80;1.00;;;;;;5015674;28;20174;-43
2023/10/11 11:01:40;;;;;;;7.97;3.87;;;22.80;1.00;;;;;;5014356;28;20174;-43
2023/10/11 11:04:09;;;;;;;10.57;3.70;;;22.90;24.40;;;;;;5015749;28;20189;-43
2023/10/11 11:06:44;;;;;;;11.47;4.40;;;22.90;13.30;;;;;;5015488;28;20642;-43
2023/10/11 11:09:15;;;;;;;13.67;4.23;;;22.90;18.10;;;;;;5014194;28;20239;-43
2023/10/11 11:11:44;;;;;;;15.00;4.27;;;22.90;9.30;;;;;;5015825;28;20169;-43
2023/10/11 11:14:14;;;;;;;8.60;3.73;;;22.80;1.00;;;;;;5014249;28;20300;-43
2023/10/11 11:16:43;;;;;;;11.90;4.30;;;22.80;2.40;;;;;;5015345;28;20164;-42
2023/10/11 11:19:16;;;;;;;11.90;4.17;;;22.80;1.00;;;;;;5015436;28;20177;-42
2023/10/11 11:21:46;;;;;;;19.20;4.80;;;22.80;1.00;;;;;;5015286;28;20177;-43
2023/10/11 11:24:27;;;;;;;7.43;3.43;;;22.90;1.00;;;;;;5015717;28;20245;-42
2023/10/11 11:26:54;;;;;;;10.27;3.33;;;23.00;1.00;;;;;;5013914;28;20193;-41
2023/10/11 11:29:33;;;;;;;10.50;3.67;;;23.00;1.00;;;;;;5014501;28;20209;-43
2023/10/11 11:32:14;;;;;;;13.47;4.47;;;23.10;1.00;;;;;;5015311;28;20547;-43
2023/10/11 11:35:09;;;;;;;10.47;3.93;;;23.10;1.00;;;;;;5014950;28;20161;-43
2023/10/11 11:37:40;;;;;;;12.30;4.20;;;23.20;5.50;;;;;;5014821;28;20300;-43
2023/10/11 11:40:23;;;;;;;13.97;4.00;;;23.30;1.00;;;;;;5015050;28;20229;-42
2023/10/11 11:42:49;;;;;;;8.83;3.83;;;23.30;1.00;;;;;;5013612;28;20714;-44
2023/10/11 11:45:16;;;;;;;10.87;3.73;;;23.40;1.00;;;;;;5014781;28;20181;-42
2023/10/11 11:47:55;;;;;;;10.23;3.87;;;23.40;1.00;;;;;;5014671;28;20231;-42
2023/10/11 11:50:23;;;;;;;13.77;4.60;;;23.50;1.00;;;;;;5014769;28;20213;-42
2023/10/11 11:52:50;;;;;;;12.77;4.00;;;23.50;1.00;;;;;;5014564;28;20197;-43
2023/10/11 11:55:26;;;;;;;8.87;3.77;;;23.50;1.00;;;;;;5013541;28;20183;-46
2023/10/11 11:57:55;;;;;;;9.40;3.87;;;23.60;1.00;;;;;;5013221;28;20169;-47
2023/10/11 12:02:55;;;;;;;7.77;3.33;;;23.70;1.00;;;;;;5014745;28;20634;-48
2023/10/11 12:05:27;;;;;;;10.67;3.67;;;23.80;1.00;;;;;;5014728;28;20181;-46
2023/10/11 12:07:58;;;;;;;15.90;4.40;;;23.90;1.00;;;;;;5014233;28;20162;-48
2023/10/11 12:10:32;;;;;;;11.10;3.80;;;23.90;1.00;;;;;;5012966;28;20201;-47
2023/10/11 12:13:05;;;;;;;11.23;3.70;;;24.00;1.00;;;;;;4997489;28;20207;-48
2023/10/11 12:15:39;;;;;;;14.27;3.87;;;24.10;1.00;;;;;;5014062;28;20194;-46
2023/10/11 12:18:09;;;;;;;16.77;4.07;;;24.10;1.00;;;;;;5014063;28;20239;-47
2023/10/11 12:20:36;;;;;;;8.83;3.13;;;24.10;1.00;;;;;;5013927;28;20225;-45
2023/10/11 12:23:10;;;;;;;15.87;4.10;;;24.20;1.00;;;;;;4996496;28;20236;-45
2023/10/11 12:30:48;;;;;;;10.97;3.87;;;24.30;1.00;;;;;;5011891;28;20233;-43
2023/10/11 12:33:14;;;;;;;9.20;3.60;;;24.30;1.00;;;;;;5014161;28;20186;-43
2023/10/11 12:35:41;;;;;;;12.80;3.47;;;24.30;1.00;;;;;;5013895;28;20183;-43
2023/10/11 12:38:12;;;;;;;10.57;3.87;;;24.30;1.00;;;;;;4996226;28;20181;-42
2023/10/11 12:40:44;;;;;;;11.53;4.03;;;24.40;1.00;;;;;;5013694;28;20201;-44
2023/10/11 12:43:10;;;;;;;11.40;4.07;;;24.40;1.00;;;;;;5013582;28;20251;-41
2023/10/11 12:45:36;;;;;;;12.33;3.50;;;24.40;1.00;;;;;;5013786;28;20185;-43
2023/10/11 12:48:06;;;;;;;11.37;3.90;;;24.40;14.90;;;;;;5013654;28;20186;-42
2023/10/11 12:50:39;;;;;;;10.77;3.87;;;24.40;1.00;;;;;;4996034;28;20206;-42
2023/10/11 12:53:11;;;;;;;10.87;4.43;;;24.40;1.00;;;;;;4996100;28;20296;-41
2023/10/11 12:55:50;;;;;;;14.17;4.30;;;24.40;1.00;;;;;;4997242;28;20272;-42
2023/10/11 12:58:19;;;;;;;16.07;3.80;;;24.40;1.00;;;;;;4994115;28;20198;-43
2023/10/11 13:00:53;;;;;;;11.60;3.87;;;24.40;1.00;;;;;;4994074;28;20213;-42
2023/10/11 13:03:26;;;;;;;16.33;3.63;;;24.40;1.00;;;;;;4994147;28;20530;-41
2023/10/11 13:05:52;;;;;;;16.77;4.00;;;24.50;1.00;;;;;;4994144;28;20171;-43
2023/10/11 13:08:24;;;;;;;14.43;3.87;;;24.60;1.00;;;;;;4994001;28;20237;-43
2023/10/11 13:10:51;;;;;;;9.53;3.80;;;24.70;1.00;;;;;;4993677;28;20685;-44
2023/10/11 13:13:18;;;;;;;9.70;3.50;;;24.80;1.00;;;;;;4994095;28;20209;-42
2023/10/11 13:16:01;;;;;;;13.27;3.57;;;24.80;3.70;;;;;;4976404;28;20182;-41
2023/10/11 13:18:37;;;;;;;8.23;3.60;;;24.70;1.00;;;;;;4994134;28;20193;-44
2023/10/11 13:21:11;;;;;;;11.47;3.57;;;24.70;1.00;;;;;;4993680;28;20205;-41
2023/10/11 13:23:37;;;;;;;11.90;3.73;;;24.70;1.00;;;;;;4993694;28;20182;-43
2023/10/11 13:26:08;;;;;;;15.27;4.77;;;24.70;1.00;;;;;;4993738;28;20653;-43
2023/10/11 13:28:40;;;;;;;17.60;3.70;;;24.70;1.00;;;;;;4993756;28;20194;-41
2023/10/11 13:31:06;;;;;;;16.23;3.47;;;24.60;1.00;;;;;;4994042;28;20209;-43
2023/10/11 13:33:32;;;;;;;15.90;4.10;;;24.70;1.00;;;;;;4993880;28;20190;-43
2023/10/11 13:36:02;;;;;;;9.30;3.40;;;24.70;1.00;;;;;;4994079;28;20280;-42
2023/10/11 13:38:31;;;;;;;14.30;4.13;;;24.70;1.00;;;;;;4993484;28;20201;-42
2023/10/11 13:40:58;;;;;;;15.47;3.83;;;24.70;1.00;;;;;;4976102;28;20214;-42
2023/10/11 13:43:24;;;;;;;14.97;3.87;;;24.70;1.00;;;;;;4993503;28;20654;-43
2023/10/11 13:45:56;;;;;;;22.07;3.70;;;24.70;1.00;;;;;;4976020;28;20197;-44
2023/10/11 13:48:37;;;;;;;13.47;4.43;;;24.70;1.00;;;;;;4993374;28;20237;-42
2023/10/11 13:51:16;;;;;;;12.13;4.33;;;24.70;1.00;;;;;;4994304;28;20202;-43
2023/10/11 13:53:42;;;;;;;9.00;3.77;;;24.70;1.00;;;;;;4995739;28;20170;-44
2023/10/11 13:56:21;;;;;;;16.40;3.90;;;24.70;1.00;;;;;;4997184;28;20178;-43
2023/10/11 13:58:51;;;;;;;10.13;3.70;;;24.70;1.00;;;;;;4997148;28;20272;-42
2023/10/11 14:04:13;;;;;;;13.83;3.63;;;24.70;1.00;;;;;;4997112;28;20542;-42
2023/10/11 14:07:07;;;;;;;22.83;3.90;;;24.60;1.00;;;;;;4979470;28;20201;-43
2023/10/11 14:09:29;;;;;;;14.80;4.50;;;24.70;1.00;;;;;;4996277;28;20225;-42
2023/10/11 14:11:55;;;;;;;7.37;3.37;;;24.70;1.00;;;;;;4997139;28;20175;-44
2023/10/11 14:14:23;;;;;;;8.63;3.90;;;24.70;1.00;;;;;;4979405;28;20178;-43
2023/10/11 14:16:49;;;;;;;18.17;3.53;;;24.80;1.00;;;;;;4997175;28;20240;-43
2023/10/11 14:19:16;;;;;;;16.93;3.70;;;24.80;1.00;;;;;;4996756;28;20178;-43
2023/10/11 14:21:48;;;;;;;12.40;3.27;;;24.80;1.00;;;;;;5011757;28;20244;-41
2023/10/11 14:24:16;;;;;;;13.70;3.90;;;24.70;1.00;;;;;;4996949;28;20174;-43
2023/10/11 14:26:41;;;;;;;10.47;3.83;;;24.70;1.00;;;;;;5011671;28;20174;-41
2023/10/11 14:29:07;;;;;;;8.83;3.37;;;24.70;1.00;;;;;;4996429;28;20681;-42
2023/10/11 14:31:34;;;;;;;10.03;3.87;;;24.60;1.00;;;;;;4996457;28;20271;-43
2023/10/11 14:34:00;;;;;;;8.33;3.27;;;24.50;1.00;;;;;;4978996;28;20649;-41
2023/10/11 14:36:27;;;;;;;11.83;3.20;;;24.50;1.00;;;;;;4996379;28;20193;-42